sensor_id;sensor_type;location;lat;lon;timestamp;P1;durP1;ratioP1;P2;durP2;ratioP2
19812;SDS011;10066;48.108;11.448;2023-04-09T00:01:19;12.30;;;8.63;;
19812;SDS011;10066;48.108;11.448;2023-04-09T00:03:46;12.60;;;8.80;;
19812;SDS011;10066;48.108;11.448;2023-04-09T00:06:14;12.20;;;9.47;;
19812;SDS011;10066;48.108;11.448;2023-04-09T00:08:41;13.60;;;9.17;;
19812;SDS011;10066;48.108;11.448;2023-04-09T00:11:10;11.70;;;8.33;;
19812;SDS011;10066;48.108;11.448;2023-04-09T00:13:38;10.87;;;8.63;;
19812;SDS011;10066;48.108;11.448;2023-04-09T00:16:05;11.50;;;8.67;;
19812;SDS011;10066;48.108;11.448;2023-04-09T00:18:33;12.27;;;8.93;;
19812;SDS011;10066;48.108;11.448;2023-04-09T00:21:00;14.07;;;9.20;;
19812;SDS011;10066;48.108;11.448;2023-04-09T00:23:27;11.43;;;8.63;;
19812;SDS011;10066;48.108;11.448;2023-04-09T00:25:54;13.60;;;8.43;;
19812;SDS011;10066;48.108;11.448;2023-04-09T00:28:21;12.37;;;9.20;;
19812;SDS011;10066;48.108;11.448;2023-04-09T00:30:52;11.43;;;9.27;;
19812;SDS011;10066;48.108;11.448;2023-04-09T00:33:19;10.90;;;8.67;;
19812;SDS011;10066;48.108;11.448;2023-04-09T00:35:46;11.87;;;9.57;;
19812;SDS011;10066;48.108;11.448;2023-04-09T00:38:13;12.43;;;9.13;;
19812;SDS011;10066;48.108;11.448;2023-04-09T00:40:40;12.50;;;9.40;;
19812;SDS011;10066;48.108;11.448;2023-04-09T00:43:07;11.60;;;9.63;;
19812;SDS011;10066;48.108;11.448;2023-04-09T00:45:34;11.57;;;8.60;;
19812;SDS011;10066;48.108;11.448;2023-04-09T00:48:03;10.50;;;8.73;;
19812;SDS011;10066;48.108;11.448;2023-04-09T00:50:30;11.90;;;9.57;;
19812;SDS011;10066;48.108;11.448;2023-04-09T00:52:57;11.30;;;9.00;;
19812;SDS011;10066;48.108;11.448;2023-04-09T00:55:24;14.43;;;8.90;;
19812;SDS011;10066;48.108;11.448;2023-04-09T00:57:53;13.93;;;9.27;;
19812;SDS011;10066;48.108;11.448;2023-04-09T01:00:20;12.77;;;9.67;;
19812;SDS011;10066;48.108;11.448;2023-04-09T01:02:47;11.93;;;9.57;;
19812;SDS011;10066;48.108;11.448;2023-04-09T01:05:18;11.73;;;9.27;;
19812;SDS011;10066;48.108;11.448;2023-04-09T01:07:49;14.03;;;9.87;;
19812;SDS011;10066;48.108;11.448;2023-04-09T01:10:30;12.87;;;10.00;;
19812;SDS011;10066;48.108;11.448;2023-04-09T01:13:03;11.77;;;9.77;;
19812;SDS011;10066;48.108;11.448;2023-04-09T01:15:37;14.77;;;10.87;;
19812;SDS011;10066;48.108;11.448;2023-04-09T01:18:10;12.13;;;9.70;;
19812;SDS011;10066;48.108;11.448;2023-04-09T01:20:45;13.53;;;10.50;;
19812;SDS011;10066;48.108;11.448;2023-04-09T01:23:17;12.93;;;10.37;;
19812;SDS011;10066;48.108;11.448;2023-04-09T01:25:54;12.87;;;10.03;;
19812;SDS011;10066;48.108;11.448;2023-04-09T01:28:31;12.87;;;10.13;;
19812;SDS011;10066;48.108;11.448;2023-04-09T01:31:01;12.20;;;9.50;;
19812;SDS011;10066;48.108;11.448;2023-04-09T01:33:32;11.97;;;9.90;;
19812;SDS011;10066;48.108;11.448;2023-04-09T01:36:00;15.67;;;9.90;;
19812;SDS011;10066;48.108;11.448;2023-04-09T01:38:29;12.93;;;10.27;;
19812;SDS011;10066;48.108;11.448;2023-04-09T01:40:58;11.77;;;9.50;;
19812;SDS011;10066;48.108;11.448;2023-04-09T01:43:25;14.00;;;9.73;;
19812;SDS011;10066;48.108;11.448;2023-04-09T01:45:55;14.50;;;10.07;;
19812;SDS011;10066;48.108;11.448;2023-04-09T01:48:23;12.77;;;9.57;;
19812;SDS011;10066;48.108;11.448;2023-04-09T01:50:50;13.73;;;9.53;;
19812;SDS011;10066;48.108;11.448;2023-04-09T01:53:17;12.07;;;10.17;;
19812;SDS011;10066;48.108;11.448;2023-04-09T01:55:45;11.37;;;9.77;;
19812;SDS011;10066;48.108;11.448;2023-04-09T01:58:12;13.27;;;9.50;;
19812;SDS011;10066;48.108;11.448;2023-04-09T02:00:42;14.37;;;9.63;;
19812;SDS011;10066;48.108;11.448;2023-04-09T02:03:15;10.93;;;9.37;;
19812;SDS011;10066;48.108;11.448;2023-04-09T02:05:45;11.63;;;9.27;;
19812;SDS011;10066;48.108;11.448;2023-04-09T02:08:18;12.07;;;9.10;;
19812;SDS011;10066;48.108;11.448;2023-04-09T02:10:48;15.80;;;9.57;;
19812;SDS011;10066;48.108;11.448;2023-04-09T02:13:19;12.33;;;9.73;;
19812;SDS011;10066;48.108;11.448;2023-04-09T02:15:47;12.30;;;9.47;;
19812;SDS011;10066;48.108;11.448;2023-04-09T02:18:33;12.00;;;9.63;;
19812;SDS011;10066;48.108;11.448;2023-04-09T02:21:00;12.03;;;9.93;;
19812;SDS011;10066;48.108;11.448;2023-04-09T02:23:27;12.13;;;10.17;;
19812;SDS011;10066;48.108;11.448;2023-04-09T02:25:54;11.13;;;9.60;;
19812;SDS011;10066;48.108;11.448;2023-04-09T02:28:21;11.40;;;9.63;;
19812;SDS011;10066;48.108;11.448;2023-04-09T02:30:48;13.67;;;10.10;;
19812;SDS011;10066;48.108;11.448;2023-04-09T02:33:15;13.13;;;9.90;;
19812;SDS011;10066;48.108;11.448;2023-04-09T02:35:43;12.53;;;10.53;;
19812;SDS011;10066;48.108;11.448;2023-04-09T02:38:10;12.60;;;10.03;;
19812;SDS011;10066;48.108;11.448;2023-04-09T02:40:37;10.93;;;9.17;;
19812;SDS011;10066;48.108;11.448;2023-04-09T02:43:05;14.43;;;9.97;;
19812;SDS011;10066;48.108;11.448;2023-04-09T02:45:32;11.13;;;9.17;;
19812;SDS011;10066;48.108;11.448;2023-04-09T02:47:58;12.97;;;9.73;;
19812;SDS011;10066;48.108;11.448;2023-04-09T02:50:25;12.83;;;9.73;;
19812;SDS011;10066;48.108;11.448;2023-04-09T02:52:53;13.57;;;10.17;;
19812;SDS011;10066;48.108;11.448;2023-04-09T02:55:20;13.70;;;10.03;;
19812;SDS011;10066;48.108;11.448;2023-04-09T02:57:47;13.23;;;10.87;;
19812;SDS011;10066;48.108;11.448;2023-04-09T03:00:15;12.13;;;10.43;;
19812;SDS011;10066;48.108;11.448;2023-04-09T03:02:41;12.10;;;9.63;;
19812;SDS011;10066;48.108;11.448;2023-04-09T03:05:08;11.57;;;9.90;;
19812;SDS011;10066;48.108;11.448;2023-04-09T03:07:36;12.57;;;10.47;;
19812;SDS011;10066;48.108;11.448;2023-04-09T03:10:04;13.20;;;9.60;;
19812;SDS011;10066;48.108;11.448;2023-04-09T03:12:31;13.90;;;10.53;;
19812;SDS011;10066;48.108;11.448;2023-04-09T03:14:58;14.90;;;10.20;;
19812;SDS011;10066;48.108;11.448;2023-04-09T03:17:26;13.50;;;10.70;;
19812;SDS011;10066;48.108;11.448;2023-04-09T03:19:56;12.73;;;10.07;;
19812;SDS011;10066;48.108;11.448;2023-04-09T03:22:23;12.97;;;9.90;;
19812;SDS011;10066;48.108;11.448;2023-04-09T03:24:50;13.17;;;9.93;;
19812;SDS011;10066;48.108;11.448;2023-04-09T03:27:18;13.50;;;10.53;;
19812;SDS011;10066;48.108;11.448;2023-04-09T03:29:45;14.80;;;10.60;;
19812;SDS011;10066;48.108;11.448;2023-04-09T03:32:12;13.37;;;11.10;;
19812;SDS011;10066;48.108;11.448;2023-04-09T03:34:39;12.73;;;10.50;;
19812;SDS011;10066;48.108;11.448;2023-04-09T03:37:06;14.70;;;10.83;;
19812;SDS011;10066;48.108;11.448;2023-04-09T03:39:33;12.57;;;10.27;;
19812;SDS011;10066;48.108;11.448;2023-04-09T03:42:00;12.67;;;10.27;;
19812;SDS011;10066;48.108;11.448;2023-04-09T03:44:28;14.30;;;10.67;;
19812;SDS011;10066;48.108;11.448;2023-04-09T03:46:55;13.00;;;10.13;;
19812;SDS011;10066;48.108;11.448;2023-04-09T03:49:22;13.60;;;10.93;;
19812;SDS011;10066;48.108;11.448;2023-04-09T03:51:49;14.63;;;10.73;;
19812;SDS011;10066;48.108;11.448;2023-04-09T03:54:16;14.10;;;11.00;;
19812;SDS011;10066;48.108;11.448;2023-04-09T03:56:43;17.60;;;11.83;;
19812;SDS011;10066;48.108;11.448;2023-04-09T03:59:10;15.90;;;11.47;;
19812;SDS011;10066;48.108;11.448;2023-04-09T04:01:38;15.40;;;12.03;;
19812;SDS011;10066;48.108;11.448;2023-04-09T04:04:05;14.70;;;11.10;;
19812;SDS011;10066;48.108;11.448;2023-04-09T04:06:33;14.77;;;11.50;;
19812;SDS011;10066;48.108;11.448;2023-04-09T04:09:00;15.70;;;10.93;;
19812;SDS011;10066;48.108;11.448;2023-04-09T04:11:27;16.40;;;11.73;;
19812;SDS011;10066;48.108;11.448;2023-04-09T04:13:55;15.93;;;11.87;;
19812;SDS011;10066;48.108;11.448;2023-04-09T04:16:22;18.20;;;12.53;;
19812;SDS011;10066;48.108;11.448;2023-04-09T04:18:50;17.50;;;11.47;;
19812;SDS011;10066;48.108;11.448;2023-04-09T04:21:17;17.70;;;11.57;;
19812;SDS011;10066;48.108;11.448;2023-04-09T04:23:45;17.47;;;12.10;;
19812;SDS011;10066;48.108;11.448;2023-04-09T04:26:12;15.73;;;11.70;;
19812;SDS011;10066;48.108;11.448;2023-04-09T04:28:39;18.00;;;12.50;;
19812;SDS011;10066;48.108;11.448;2023-04-09T04:31:07;16.40;;;12.10;;
19812;SDS011;10066;48.108;11.448;2023-04-09T04:33:35;17.50;;;12.47;;
19812;SDS011;10066;48.108;11.448;2023-04-09T04:36:04;16.57;;;12.10;;
19812;SDS011;10066;48.108;11.448;2023-04-09T04:38:32;16.37;;;12.07;;
19812;SDS011;10066;48.108;11.448;2023-04-09T04:40:59;16.73;;;12.87;;
19812;SDS011;10066;48.108;11.448;2023-04-09T04:43:26;17.17;;;12.47;;
19812;SDS011;10066;48.108;11.448;2023-04-09T04:45:53;19.10;;;12.80;;
19812;SDS011;10066;48.108;11.448;2023-04-09T04:48:21;18.77;;;13.80;;
19812;SDS011;10066;48.108;11.448;2023-04-09T04:50:53;19.47;;;13.47;;
19812;SDS011;10066;48.108;11.448;2023-04-09T04:53:22;21.23;;;13.07;;
19812;SDS011;10066;48.108;11.448;2023-04-09T04:55:49;18.00;;;13.77;;
19812;SDS011;10066;48.108;11.448;2023-04-09T04:58:16;21.93;;;14.10;;
19812;SDS011;10066;48.108;11.448;2023-04-09T05:00:43;19.07;;;13.67;;
19812;SDS011;10066;48.108;11.448;2023-04-09T05:03:10;19.37;;;13.27;;
19812;SDS011;10066;48.108;11.448;2023-04-09T05:05:37;19.10;;;13.03;;
19812;SDS011;10066;48.108;11.448;2023-04-09T05:08:04;18.17;;;12.87;;
19812;SDS011;10066;48.108;11.448;2023-04-09T05:13:01;17.43;;;13.10;;
19812;SDS011;10066;48.108;11.448;2023-04-09T05:15:28;16.57;;;11.87;;
19812;SDS011;10066;48.108;11.448;2023-04-09T05:17:55;19.43;;;12.40;;
19812;SDS011;10066;48.108;11.448;2023-04-09T05:20:22;16.50;;;12.07;;
19812;SDS011;10066;48.108;11.448;2023-04-09T05:22:49;17.53;;;12.43;;
19812;SDS011;10066;48.108;11.448;2023-04-09T05:25:16;19.37;;;12.83;;
19812;SDS011;10066;48.108;11.448;2023-04-09T05:27:44;17.87;;;13.27;;
19812;SDS011;10066;48.108;11.448;2023-04-09T05:30:11;20.80;;;13.23;;
19812;SDS011;10066;48.108;11.448;2023-04-09T05:32:38;19.53;;;13.50;;
19812;SDS011;10066;48.108;11.448;2023-04-09T05:35:05;19.90;;;13.47;;
19812;SDS011;10066;48.108;11.448;2023-04-09T05:37:32;22.30;;;14.50;;
19812;SDS011;10066;48.108;11.448;2023-04-09T05:39:59;22.10;;;14.83;;
19812;SDS011;10066;48.108;11.448;2023-04-09T05:42:28;30.17;;;18.23;;
19812;SDS011;10066;48.108;11.448;2023-04-09T05:44:56;40.37;;;23.03;;
19812;SDS011;10066;48.108;11.448;2023-04-09T05:47:23;45.60;;;25.27;;
19812;SDS011;10066;48.108;11.448;2023-04-09T05:49:50;52.07;;;28.57;;
19812;SDS011;10066;48.108;11.448;2023-04-09T05:52:16;48.17;;;27.80;;
19812;SDS011;10066;48.108;11.448;2023-04-09T05:54:43;39.97;;;24.77;;
19812;SDS011;10066;48.108;11.448;2023-04-09T05:57:10;33.10;;;19.73;;
19812;SDS011;10066;48.108;11.448;2023-04-09T05:59:37;21.47;;;16.10;;
19812;SDS011;10066;48.108;11.448;2023-04-09T06:02:05;16.73;;;13.17;;
19812;SDS011;10066;48.108;11.448;2023-04-09T06:04:32;15.13;;;12.57;;
19812;SDS011;10066;48.108;11.448;2023-04-09T06:06:59;15.97;;;12.80;;
19812;SDS011;10066;48.108;11.448;2023-04-09T06:09:26;14.30;;;11.80;;
19812;SDS011;10066;48.108;11.448;2023-04-09T06:11:53;14.57;;;12.50;;
19812;SDS011;10066;48.108;11.448;2023-04-09T06:14:21;13.97;;;11.97;;
19812;SDS011;10066;48.108;11.448;2023-04-09T06:16:48;13.97;;;11.67;;
19812;SDS011;10066;48.108;11.448;2023-04-09T06:19:17;14.27;;;11.97;;
19812;SDS011;10066;48.108;11.448;2023-04-09T06:21:45;16.37;;;13.00;;
19812;SDS011;10066;48.108;11.448;2023-04-09T06:24:12;16.23;;;13.07;;
19812;SDS011;10066;48.108;11.448;2023-04-09T06:26:38;16.67;;;12.97;;
19812;SDS011;10066;48.108;11.448;2023-04-09T06:29:05;15.30;;;12.73;;
19812;SDS011;10066;48.108;11.448;2023-04-09T06:31:32;14.43;;;12.23;;
19812;SDS011;10066;48.108;11.448;2023-04-09T06:33:59;13.90;;;12.20;;
19812;SDS011;10066;48.108;11.448;2023-04-09T06:36:28;14.90;;;12.07;;
19812;SDS011;10066;48.108;11.448;2023-04-09T06:38:55;12.83;;;10.93;;
19812;SDS011;10066;48.108;11.448;2023-04-09T06:41:23;12.67;;;10.67;;
19812;SDS011;10066;48.108;11.448;2023-04-09T06:43:50;14.50;;;11.13;;
19812;SDS011;10066;48.108;11.448;2023-04-09T06:46:17;11.10;;;9.53;;
19812;SDS011;10066;48.108;11.448;2023-04-09T06:48:45;11.80;;;9.83;;
19812;SDS011;10066;48.108;11.448;2023-04-09T06:51:12;11.60;;;10.20;;
19812;SDS011;10066;48.108;11.448;2023-04-09T06:53:41;12.23;;;9.43;;
19812;SDS011;10066;48.108;11.448;2023-04-09T06:56:08;12.33;;;9.53;;
19812;SDS011;10066;48.108;11.448;2023-04-09T06:58:35;10.17;;;8.70;;
19812;SDS011;10066;48.108;11.448;2023-04-09T07:01:03;10.13;;;8.47;;
19812;SDS011;10066;48.108;11.448;2023-04-09T07:03:30;10.57;;;8.93;;
19812;SDS011;10066;48.108;11.448;2023-04-09T07:05:57;10.17;;;8.10;;
19812;SDS011;10066;48.108;11.448;2023-04-09T07:08:25;9.57;;;8.53;;
19812;SDS011;10066;48.108;11.448;2023-04-09T07:10:54;12.13;;;9.27;;
19812;SDS011;10066;48.108;11.448;2023-04-09T07:13:21;10.70;;;8.80;;
19812;SDS011;10066;48.108;11.448;2023-04-09T07:15:47;10.90;;;9.13;;
19812;SDS011;10066;48.108;11.448;2023-04-09T07:18:14;9.80;;;7.80;;
19812;SDS011;10066;48.108;11.448;2023-04-09T07:20:41;9.07;;;8.07;;
19812;SDS011;10066;48.108;11.448;2023-04-09T07:23:08;9.60;;;8.20;;
19812;SDS011;10066;48.108;11.448;2023-04-09T07:25:35;10.83;;;9.17;;
19812;SDS011;10066;48.108;11.448;2023-04-09T07:28:04;10.37;;;8.33;;
19812;SDS011;10066;48.108;11.448;2023-04-09T07:30:31;9.50;;;8.03;;
19812;SDS011;10066;48.108;11.448;2023-04-09T07:32:58;10.13;;;8.17;;
19812;SDS011;10066;48.108;11.448;2023-04-09T07:35:25;10.90;;;9.00;;
19812;SDS011;10066;48.108;11.448;2023-04-09T07:37:52;9.07;;;7.80;;
19812;SDS011;10066;48.108;11.448;2023-04-09T07:40:19;8.77;;;7.77;;
19812;SDS011;10066;48.108;11.448;2023-04-09T07:42:45;10.77;;;8.20;;
19812;SDS011;10066;48.108;11.448;2023-04-09T07:45:14;9.77;;;8.73;;
19812;SDS011;10066;48.108;11.448;2023-04-09T07:47:41;9.83;;;8.10;;
19812;SDS011;10066;48.108;11.448;2023-04-09T07:50:08;9.50;;;8.07;;
19812;SDS011;10066;48.108;11.448;2023-04-09T07:52:36;10.00;;;8.50;;
19812;SDS011;10066;48.108;11.448;2023-04-09T07:55:03;9.53;;;8.17;;
19812;SDS011;10066;48.108;11.448;2023-04-09T07:57:32;8.97;;;7.90;;
19812;SDS011;10066;48.108;11.448;2023-04-09T08:00:00;7.60;;;6.70;;
19812;SDS011;10066;48.108;11.448;2023-04-09T08:02:29;8.30;;;7.40;;
19812;SDS011;10066;48.108;11.448;2023-04-09T08:04:56;8.43;;;7.47;;
19812;SDS011;10066;48.108;11.448;2023-04-09T08:07:23;8.17;;;7.10;;
19812;SDS011;10066;48.108;11.448;2023-04-09T08:09:50;7.90;;;6.87;;
19812;SDS011;10066;48.108;11.448;2023-04-09T08:12:17;7.67;;;6.67;;
19812;SDS011;10066;48.108;11.448;2023-04-09T08:14:44;7.07;;;6.37;;
19812;SDS011;10066;48.108;11.448;2023-04-09T08:17:11;7.47;;;6.47;;
19812;SDS011;10066;48.108;11.448;2023-04-09T08:19:39;8.37;;;7.17;;
19812;SDS011;10066;48.108;11.448;2023-04-09T08:22:06;8.40;;;7.10;;
19812;SDS011;10066;48.108;11.448;2023-04-09T08:24:33;7.70;;;6.60;;
19812;SDS011;10066;48.108;11.448;2023-04-09T08:27:01;7.97;;;6.57;;
19812;SDS011;10066;48.108;11.448;2023-04-09T08:29:28;8.17;;;6.90;;
19812;SDS011;10066;48.108;11.448;2023-04-09T08:31:56;8.90;;;7.13;;
19812;SDS011;10066;48.108;11.448;2023-04-09T08:34:23;7.60;;;6.43;;
19812;SDS011;10066;48.108;11.448;2023-04-09T08:36:52;8.60;;;7.27;;
19812;SDS011;10066;48.108;11.448;2023-04-09T08:39:19;9.40;;;7.43;;
19812;SDS011;10066;48.108;11.448;2023-04-09T08:41:46;8.73;;;7.83;;
19812;SDS011;10066;48.108;11.448;2023-04-09T08:44:13;7.97;;;6.67;;
19812;SDS011;10066;48.108;11.448;2023-04-09T08:46:41;7.50;;;6.57;;
19812;SDS011;10066;48.108;11.448;2023-04-09T08:49:10;9.17;;;7.20;;
19812;SDS011;10066;48.108;11.448;2023-04-09T08:51:37;7.80;;;6.97;;
19812;SDS011;10066;48.108;11.448;2023-04-09T08:54:05;7.80;;;6.80;;
19812;SDS011;10066;48.108;11.448;2023-04-09T08:56:32;8.93;;;7.40;;
19812;SDS011;10066;48.108;11.448;2023-04-09T08:58:59;9.23;;;7.93;;
19812;SDS011;10066;48.108;11.448;2023-04-09T09:01:28;8.87;;;7.60;;
19812;SDS011;10066;48.108;11.448;2023-04-09T09:03:57;9.90;;;7.53;;
19812;SDS011;10066;48.108;11.448;2023-04-09T09:06:26;9.23;;;8.13;;
19812;SDS011;10066;48.108;11.448;2023-04-09T09:08:59;11.23;;;8.77;;
19812;SDS011;10066;48.108;11.448;2023-04-09T09:11:44;10.30;;;8.13;;
19812;SDS011;10066;48.108;11.448;2023-04-09T09:14:12;11.17;;;9.07;;
19812;SDS011;10066;48.108;11.448;2023-04-09T09:16:41;10.23;;;8.97;;
19812;SDS011;10066;48.108;11.448;2023-04-09T09:19:13;10.00;;;8.57;;
19812;SDS011;10066;48.108;11.448;2023-04-09T09:21:55;10.37;;;8.93;;
19812;SDS011;10066;48.108;11.448;2023-04-09T09:24:24;11.03;;;9.37;;
19812;SDS011;10066;48.108;11.448;2023-04-09T09:26:51;11.03;;;9.10;;
19812;SDS011;10066;48.108;11.448;2023-04-09T09:29:18;11.53;;;9.03;;
19812;SDS011;10066;48.108;11.448;2023-04-09T09:31:45;11.07;;;9.13;;
19812;SDS011;10066;48.108;11.448;2023-04-09T09:34:14;11.37;;;9.03;;
19812;SDS011;10066;48.108;11.448;2023-04-09T09:36:41;10.90;;;9.37;;
19812;SDS011;10066;48.108;11.448;2023-04-09T09:39:10;10.53;;;9.10;;
19812;SDS011;10066;48.108;11.448;2023-04-09T09:41:39;8.97;;;8.00;;
19812;SDS011;10066;48.108;11.448;2023-04-09T09:44:06;8.87;;;7.97;;
19812;SDS011;10066;48.108;11.448;2023-04-09T09:46:35;9.53;;;8.33;;
19812;SDS011;10066;48.108;11.448;2023-04-09T09:49:04;9.00;;;8.10;;
19812;SDS011;10066;48.108;11.448;2023-04-09T09:51:32;10.90;;;8.47;;
19812;SDS011;10066;48.108;11.448;2023-04-09T09:54:02;9.27;;;8.37;;
19812;SDS011;10066;48.108;11.448;2023-04-09T09:56:34;9.80;;;8.33;;
19812;SDS011;10066;48.108;11.448;2023-04-09T09:59:06;9.93;;;8.83;;
19812;SDS011;10066;48.108;11.448;2023-04-09T10:01:41;9.90;;;8.67;;
19812;SDS011;10066;48.108;11.448;2023-04-09T10:04:10;8.17;;;7.33;;
19812;SDS011;10066;48.108;11.448;2023-04-09T10:06:39;8.67;;;7.33;;
19812;SDS011;10066;48.108;11.448;2023-04-09T10:09:08;9.60;;;8.23;;
19812;SDS011;10066;48.108;11.448;2023-04-09T10:11:36;10.03;;;8.93;;
19812;SDS011;10066;48.108;11.448;2023-04-09T10:14:08;10.93;;;8.63;;
19812;SDS011;10066;48.108;11.448;2023-04-09T10:16:35;10.27;;;8.50;;
19812;SDS011;10066;48.108;11.448;2023-04-09T10:19:02;10.57;;;8.93;;
19812;SDS011;10066;48.108;11.448;2023-04-09T10:21:32;9.80;;;8.80;;
19812;SDS011;10066;48.108;11.448;2023-04-09T10:24:04;10.37;;;8.87;;
19812;SDS011;10066;48.108;11.448;2023-04-09T10:26:32;10.27;;;8.63;;
19812;SDS011;10066;48.108;11.448;2023-04-09T10:29:04;10.30;;;9.00;;
19812;SDS011;10066;48.108;11.448;2023-04-09T10:31:46;10.23;;;9.13;;
19812;SDS011;10066;48.108;11.448;2023-04-09T10:34:15;9.93;;;8.93;;
19812;SDS011;10066;48.108;11.448;2023-04-09T10:36:43;11.00;;;9.03;;
19812;SDS011;10066;48.108;11.448;2023-04-09T10:39:13;10.87;;;9.00;;
19812;SDS011;10066;48.108;11.448;2023-04-09T10:41:40;11.17;;;9.93;;
19812;SDS011;10066;48.108;11.448;2023-04-09T10:44:18;10.43;;;8.80;;
19812;SDS011;10066;48.108;11.448;2023-04-09T10:46:47;11.67;;;9.50;;
19812;SDS011;10066;48.108;11.448;2023-04-09T10:49:15;10.47;;;9.37;;
19812;SDS011;10066;48.108;11.448;2023-04-09T10:51:47;12.50;;;9.80;;
19812;SDS011;10066;48.108;11.448;2023-04-09T10:57:11;10.27;;;8.63;;
19812;SDS011;10066;48.108;11.448;2023-04-09T10:59:40;11.87;;;9.47;;
19812;SDS011;10066;48.108;11.448;2023-04-09T11:02:09;12.03;;;9.70;;
19812;SDS011;10066;48.108;11.448;2023-04-09T11:04:55;10.47;;;8.47;;
19812;SDS011;10066;48.108;11.448;2023-04-09T11:07:29;11.97;;;10.63;;
19812;SDS011;10066;48.108;11.448;2023-04-09T11:10:00;12.10;;;10.00;;
19812;SDS011;10066;48.108;11.448;2023-04-09T11:12:27;12.37;;;10.07;;
19812;SDS011;10066;48.108;11.448;2023-04-09T11:14:54;12.33;;;10.13;;
19812;SDS011;10066;48.108;11.448;2023-04-09T11:17:22;11.70;;;9.97;;
19812;SDS011;10066;48.108;11.448;2023-04-09T11:19:49;11.47;;;10.23;;
19812;SDS011;10066;48.108;11.448;2023-04-09T11:22:16;11.97;;;10.07;;
19812;SDS011;10066;48.108;11.448;2023-04-09T11:24:44;12.57;;;10.43;;
19812;SDS011;10066;48.108;11.448;2023-04-09T11:27:11;10.83;;;9.37;;
19812;SDS011;10066;48.108;11.448;2023-04-09T11:29:38;12.63;;;10.10;;
19812;SDS011;10066;48.108;11.448;2023-04-09T11:32:06;12.47;;;10.50;;
19812;SDS011;10066;48.108;11.448;2023-04-09T11:34:35;11.07;;;9.37;;
19812;SDS011;10066;48.108;11.448;2023-04-09T11:37:03;11.40;;;9.43;;
19812;SDS011;10066;48.108;11.448;2023-04-09T11:39:34;9.63;;;8.30;;
19812;SDS011;10066;48.108;11.448;2023-04-09T11:42:02;9.20;;;8.20;;
19812;SDS011;10066;48.108;11.448;2023-04-09T11:44:29;9.80;;;7.97;;
19812;SDS011;10066;48.108;11.448;2023-04-09T11:46:56;6.97;;;5.27;;
19812;SDS011;10066;48.108;11.448;2023-04-09T11:49:24;10.07;;;8.70;;
19812;SDS011;10066;48.108;11.448;2023-04-09T11:51:53;12.30;;;8.77;;
19812;SDS011;10066;48.108;11.448;2023-04-09T11:54:22;10.07;;;8.67;;
19812;SDS011;10066;48.108;11.448;2023-04-09T11:56:49;11.80;;;9.47;;
19812;SDS011;10066;48.108;11.448;2023-04-09T11:59:20;11.37;;;7.67;;
19812;SDS011;10066;48.108;11.448;2023-04-09T12:01:48;12.67;;;9.30;;
19812;SDS011;10066;48.108;11.448;2023-04-09T12:04:18;12.37;;;9.33;;
19812;SDS011;10066;48.108;11.448;2023-04-09T12:06:46;11.43;;;9.93;;
19812;SDS011;10066;48.108;11.448;2023-04-09T12:09:15;11.57;;;10.07;;
19812;SDS011;10066;48.108;11.448;2023-04-09T12:11:42;11.13;;;9.90;;
19812;SDS011;10066;48.108;11.448;2023-04-09T12:14:11;11.43;;;10.03;;
19812;SDS011;10066;48.108;11.448;2023-04-09T12:16:38;12.57;;;10.33;;
19812;SDS011;10066;48.108;11.448;2023-04-09T12:19:08;10.97;;;9.47;;
19812;SDS011;10066;48.108;11.448;2023-04-09T12:21:46;10.33;;;9.20;;
19812;SDS011;10066;48.108;11.448;2023-04-09T12:24:15;11.70;;;9.80;;
19812;SDS011;10066;48.108;11.448;2023-04-09T12:26:43;10.40;;;9.20;;
19812;SDS011;10066;48.108;11.448;2023-04-09T12:29:12;13.07;;;9.97;;
19812;SDS011;10066;48.108;11.448;2023-04-09T12:31:40;10.17;;;8.90;;
19812;SDS011;10066;48.108;11.448;2023-04-09T12:34:08;11.83;;;9.67;;
19812;SDS011;10066;48.108;11.448;2023-04-09T12:36:36;12.97;;;9.77;;
19812;SDS011;10066;48.108;11.448;2023-04-09T12:39:04;11.97;;;9.47;;
19812;SDS011;10066;48.108;11.448;2023-04-09T12:41:32;13.27;;;9.67;;
19812;SDS011;10066;48.108;11.448;2023-04-09T12:43:59;12.10;;;10.33;;
19812;SDS011;10066;48.108;11.448;2023-04-09T12:46:26;12.03;;;10.07;;
19812;SDS011;10066;48.108;11.448;2023-04-09T12:48:53;11.37;;;10.17;;
19812;SDS011;10066;48.108;11.448;2023-04-09T12:51:20;12.73;;;9.80;;
19812;SDS011;10066;48.108;11.448;2023-04-09T12:53:47;12.10;;;9.63;;
19812;SDS011;10066;48.108;11.448;2023-04-09T12:56:14;11.20;;;8.10;;
19812;SDS011;10066;48.108;11.448;2023-04-09T12:58:43;12.90;;;10.10;;
19812;SDS011;10066;48.108;11.448;2023-04-09T13:01:10;10.87;;;8.60;;
19812;SDS011;10066;48.108;11.448;2023-04-09T13:03:37;11.77;;;10.20;;
19812;SDS011;10066;48.108;11.448;2023-04-09T13:06:05;12.97;;;10.43;;
19812;SDS011;10066;48.108;11.448;2023-04-09T13:08:32;12.53;;;8.63;;
19812;SDS011;10066;48.108;11.448;2023-04-09T13:10:58;11.80;;;9.77;;
19812;SDS011;10066;48.108;11.448;2023-04-09T13:13:25;11.67;;;9.27;;
19812;SDS011;10066;48.108;11.448;2023-04-09T13:15:54;12.37;;;9.40;;
19812;SDS011;10066;48.108;11.448;2023-04-09T13:18:21;10.43;;;8.43;;
19812;SDS011;10066;48.108;11.448;2023-04-09T13:20:48;11.80;;;9.17;;
19812;SDS011;10066;48.108;11.448;2023-04-09T13:23:14;10.57;;;8.87;;
19812;SDS011;10066;48.108;11.448;2023-04-09T13:25:41;10.67;;;8.57;;
19812;SDS011;10066;48.108;11.448;2023-04-09T13:28:08;12.23;;;9.27;;
19812;SDS011;10066;48.108;11.448;2023-04-09T13:30:35;10.33;;;8.30;;
19812;SDS011;10066;48.108;11.448;2023-04-09T13:33:03;10.70;;;9.03;;
19812;SDS011;10066;48.108;11.448;2023-04-09T13:35:30;10.60;;;8.30;;
19812;SDS011;10066;48.108;11.448;2023-04-09T13:37:58;11.67;;;9.10;;
19812;SDS011;10066;48.108;11.448;2023-04-09T13:40:26;11.30;;;9.07;;
19812;SDS011;10066;48.108;11.448;2023-04-09T13:42:52;11.53;;;8.57;;
19812;SDS011;10066;48.108;11.448;2023-04-09T13:45:20;10.70;;;8.33;;
19812;SDS011;10066;48.108;11.448;2023-04-09T13:47:47;9.67;;;7.60;;
19812;SDS011;10066;48.108;11.448;2023-04-09T13:50:16;10.10;;;8.60;;
19812;SDS011;10066;48.108;11.448;2023-04-09T13:52:43;10.70;;;8.97;;
19812;SDS011;10066;48.108;11.448;2023-04-09T13:55:10;12.67;;;9.00;;
19812;SDS011;10066;48.108;11.448;2023-04-09T13:57:37;11.20;;;8.60;;
19812;SDS011;10066;48.108;11.448;2023-04-09T14:00:05;11.73;;;7.93;;
19812;SDS011;10066;48.108;11.448;2023-04-09T14:02:33;11.73;;;9.03;;
19812;SDS011;10066;48.108;11.448;2023-04-09T14:05:00;10.67;;;9.13;;
19812;SDS011;10066;48.108;11.448;2023-04-09T14:07:29;10.97;;;8.87;;
19812;SDS011;10066;48.108;11.448;2023-04-09T14:09:56;10.23;;;8.70;;
19812;SDS011;10066;48.108;11.448;2023-04-09T14:12:23;10.83;;;8.67;;
19812;SDS011;10066;48.108;11.448;2023-04-09T14:14:50;9.77;;;7.87;;
19812;SDS011;10066;48.108;11.448;2023-04-09T14:17:17;9.30;;;7.30;;
19812;SDS011;10066;48.108;11.448;2023-04-09T14:19:44;9.03;;;7.47;;
19812;SDS011;10066;48.108;11.448;2023-04-09T14:22:11;8.10;;;6.90;;
19812;SDS011;10066;48.108;11.448;2023-04-09T14:24:40;10.00;;;7.93;;
19812;SDS011;10066;48.108;11.448;2023-04-09T14:27:07;9.43;;;8.00;;
19812;SDS011;10066;48.108;11.448;2023-04-09T14:29:34;7.23;;;5.70;;